Cape Vincent, New York
Current Conditions -  °F | °C
As of 11:00 PM on Friday 24 Oct 2014 (Local Time) from CYGK Reporting Station
Few Clouds Few Clouds  
Wind Chill: 45°   Ceiling: Unl
Heat Index: 48°   Visibility: 15mi
Dew Point: 41°   Wind: 8mph
Humidity: 76%   Direction: 270°W
Pressure: 29.86"   Gusts: NA
Location:  44.13°N, 76.33°W
Report Text: CYGK 250300Z 27007KT 15SM FEW240 09/05 A2986 RMK CI2 LAST STFD OBS/NEXT 241000UTC SLP114
Loading
Personal Weather Stations






























Interactive Weather Map
Tropical Storm Tracking
New forecast layout! Learn more

10-Day Weather Forecast

Advertisements
Track Severe Weather on mobile